Time;durP1;ratioP1;P1;durP2;ratioP2;P2;SDS_P1;SDS_P2;PMS_P1;PMS_P2;Temp;Humidity;BMP_temperature;BMP_pressure;BME280_temperature;BME280_humidity;BME280_pressure;Samples;Min_cycle;Max_cycle;Signal;HPM_P1;HPM_P2
2022/02/10 00:18:12;;;;;;;55.20;34.95;;;;;;;;;;10285956;28;20072;-65
2022/02/10 00:23:37;;;;;;;60.30;34.08;;;;;;;;;;10282825;28;20068;-66
2022/02/10 00:39:24;;;;;;;23.45;18.17;;;;;;;;;;10282902;28;20064;-64
2022/02/10 00:44:24;;;;;;;31.48;23.48;;;;;;;;;;10280246;28;20487;-64
2022/02/10 00:49:23;;;;;;;27.38;20.92;;;;;;;;;;10281192;28;20099;-65
2022/02/10 00:54:24;;;;;;;22.98;17.77;;;;;;;;;;10282763;28;20087;-63
2022/02/10 00:59:34;;;;;;;25.77;17.40;;;;;;;;;;10277398;28;20075;-63
2022/02/10 01:30:56;;;;;;;24.90;19.30;;;;;;;;;;10279833;28;20684;-64
2022/02/10 01:35:55;;;;;;;27.25;22.05;;;;;;;;;;10279954;28;20151;-64
2022/02/10 01:41:22;;;;;;;37.38;25.40;;;;;;;;;;10282873;28;20075;-64
2022/02/10 02:07:30;;;;;;;59.28;35.95;;;;;;;;;;10277863;28;20071;-64
2022/02/10 02:12:29;;;;;;;39.30;26.40;;;;;;;;;;10277375;28;20472;-64
2022/02/10 02:17:28;;;;;;;60.58;42.05;;;;;;;;;;10275864;28;20449;-64
2022/02/10 02:22:28;;;;;;;23.85;18.10;;;;;;;;;;10280146;28;20061;-64
2022/02/10 02:27:27;;;;;;;18.42;14.55;;;;;;;;;;10278421;28;20037;-64
2022/02/10 02:32:33;;;;;;;14.73;12.98;;;;;;;;;;10282147;28;20072;-63
2022/02/10 03:09:12;;;;;;;31.13;22.33;;;;;;;;;;10276955;28;20076;-64
2022/02/10 03:14:11;;;;;;;24.77;19.98;;;;;;;;;;10276876;28;20454;-64
2022/02/10 03:19:26;;;;;;;20.63;18.42;;;;;;;;;;10276714;28;20532;-64
2022/02/10 04:07:22;;;;;;;19.83;17.73;;;;;;;;;;10280253;28;20065;-64
2022/02/10 04:12:42;;;;;;;17.52;14.63;;;;;;;;;;10290073;28;20091;-65
2022/02/10 04:18:02;;;;;;;18.42;16.40;;;;;;;;;;10290537;28;20500;-64
2022/02/10 04:23:11;;;;;;;21.38;16.50;;;;;;;;;;10286785;28;20068;-63
2022/02/10 04:28:24;;;;;;;21.48;18.08;;;;;;;;;;10287951;28;20045;-64
2022/02/10 04:39:20;;;;;;;17.83;15.18;;;;;;;;;;10284250;28;20061;-64
2022/02/10 05:00:23;;;;;;;90.07;49.75;;;;;;;;;;10264395;28;20081;-64
2022/02/10 05:21:24;;;;;;;103.68;60.20;;;;;;;;;;10284355;28;20142;-64
2022/02/10 05:32:07;;;;;;;157.77;90.05;;;;;;;;;;10273105;28;20558;-65
2022/02/10 05:37:06;;;;;;;96.80;59.08;;;;;;;;;;10283612;28;20072;-64
2022/02/10 05:42:30;;;;;;;69.47;49.58;;;;;;;;;;10275145;28;20073;-64
2022/02/10 05:47:56;;;;;;;251.80;143.45;;;;;;;;;;10277376;28;20065;-64
2022/02/10 05:53:27;;;;;;;;;;;;;;;;;;10278583;28;20072;-64
2022/02/10 05:58:33;;;;;;;102.35;62.15;;;;;;;;;;10277349;28;19967;-64
2022/02/10 06:51:16;;;;;;;113.90;68.15;;;;;;;;;;10275465;28;20069;-64
2022/02/10 07:07:03;;;;;;;53.03;32.95;;;;;;;;;;10275015;28;20064;-64
2022/02/10 07:12:16;;;;;;;62.30;38.90;;;;;;;;;;10277844;28;20072;-64
2022/02/10 07:49:14;;;;;;;21.35;17.52;;;;;;;;;;10309481;28;20410;-64
2022/02/10 07:54:24;;;;;;;20.63;16.25;;;;;;;;;;10277104;28;20072;-65
2022/02/10 08:26:40;;;;;;;26.42;19.15;;;;;;;;;;10274633;28;20487;-64
2022/02/10 08:58:22;;;;;;;26.67;18.88;;;;;;;;;;10267766;28;20211;-64
2022/02/10 09:03:23;;;;;;;19.98;16.50;;;;;;;;;;10253056;28;20053;-64
2022/02/10 09:09:07;;;;;;;16.42;12.45;;;;;;;;;;10251533;28;20080;-64
2022/02/10 09:56:44;;;;;;;22.35;15.73;;;;;;;;;;10247107;28;20068;-64
2022/02/10 10:02:00;;;;;;;17.10;15.05;;;;;;;;;;10254887;28;20716;-64
2022/02/10 10:07:14;;;;;;;16.80;15.10;;;;;;;;;;10247386;28;20068;-64
2022/02/10 10:17:52;;;;;;;17.98;14.75;;;;;;;;;;10251353;28;20073;-64
2022/02/10 10:23:09;;;;;;;16.75;13.88;;;;;;;;;;10251921;28;20061;-64
2022/02/10 10:49:52;;;;;;;13.90;11.98;;;;;;;;;;10244330;28;20065;-65
2022/02/10 10:55:04;;;;;;;10.75;8.48;;;;;;;;;;10241366;28;20072;-64
2022/02/10 11:00:25;;;;;;;11.32;9.95;;;;;;;;;;10241771;28;20044;-64
2022/02/10 11:37:41;;;;;;;14.90;12.13;;;;;;;;;;10244965;28;20045;-65
2022/02/10 11:42:53;;;;;;;12.48;10.18;;;;;;;;;;10241448;28;20072;-65
2022/02/10 13:24:42;;;;;;;14.85;11.10;;;;;;;;;;10244976;28;20524;-64
2022/02/10 14:17:09;;;;;;;18.17;14.43;;;;;;;;;;10233804;28;20077;-64
2022/02/10 14:22:21;;;;;;;15.77;14.23;;;;;;;;;;10243105;28;20151;-65
2022/02/10 14:27:20;;;;;;;22.17;17.92;;;;;;;;;;10242584;28;20096;-65
2022/02/10 14:32:23;;;;;;;28.70;20.63;;;;;;;;;;10244963;28;20072;-66
2022/02/10 14:37:35;;;;;;;11.70;10.27;;;;;;;;;;10247247;28;20042;-66
2022/02/10 14:43:03;;;;;;;22.85;18.25;;;;;;;;;;10247946;28;20068;-66
2022/02/10 16:18:09;;;;;;;17.73;13.45;;;;;;;;;;10248464;28;20091;-65
2022/02/10 16:23:15;;;;;;;49.20;32.30;;;;;;;;;;10248832;28;20088;-65
2022/02/10 16:28:24;;;;;;;28.65;20.83;;;;;;;;;;10250102;28;20091;-64
2022/02/10 16:33:24;;;;;;;43.15;32.63;;;;;;;;;;10253123;28;20509;-65
2022/02/10 16:38:27;;;;;;;18.07;14.90;;;;;;;;;;10253522;28;20194;-65
2022/02/10 16:43:30;;;;;;;20.73;18.05;;;;;;;;;;10263105;28;20060;-65
2022/02/10 16:48:34;;;;;;;14.70;13.10;;;;;;;;;;10246440;28;20160;-65
2022/02/10 16:53:42;;;;;;;15.60;13.98;;;;;;;;;;10257814;28;20084;-65
2022/02/10 16:58:51;;;;;;;43.97;30.52;;;;;;;;;;10247330;28;20072;-65
2022/02/10 17:04:30;;;;;;;18.85;13.18;;;;;;;;;;10247503;28;20068;-65
2022/02/10 17:15:53;;;;;;;23.92;16.25;;;;;;;;;;10208594;28;20514;-70
2022/02/10 17:20:47;;;;;;;28.08;17.15;;;;;;;;;;10247444;28;20061;-70
2022/02/10 17:25:49;;;;;;;24.27;15.07;;;;;;;;;;10247486;28;20076;-69
2022/02/10 17:31:01;;;;;;;22.05;13.38;;;;;;;;;;10248984;28;20502;-70
2022/02/10 17:36:13;;;;;;;13.05;8.88;;;;;;;;;;10244939;28;20485;-69
2022/02/10 17:41:32;;;;;;;9.27;7.75;;;;;;;;;;10250598;28;20072;-70
2022/02/10 17:46:41;;;;;;;9.15;7.38;;;;;;;;;;10254649;28;20523;-69
2022/02/10 17:51:51;;;;;;;54.40;29.63;;;;;;;;;;10258627;28;20457;-70
2022/02/10 17:56:50;;;;;;;10.45;9.10;;;;;;;;;;10250864;28;20060;-70
2022/02/10 18:01:49;;;;;;;14.10;11.65;;;;;;;;;;10251663;28;20048;-71
2022/02/10 18:06:53;;;;;;;15.38;13.57;;;;;;;;;;10247217;28;20068;-71
2022/02/10 18:17:22;;;;;;;18.95;13.27;;;;;;;;;;10251132;28;20111;-71
2022/02/10 18:22:43;;;;;;;43.03;29.00;;;;;;;;;;10244325;28;20065;-72
2022/02/10 18:27:56;;;;;;;31.23;23.10;;;;;;;;;;10242756;28;20076;-71
2022/02/10 19:10:08;;;;;;;21.23;15.43;;;;;;;;;;10208619;28;20079;-70
2022/02/10 19:15:11;;;;;;;175.90;90.88;;;;;;;;;;10242846;28;20045;-70
2022/02/10 19:20:10;;;;;;;40.40;23.30;;;;;;;;;;10246745;28;20071;-70
2022/02/10 19:25:12;;;;;;;21.98;15.82;;;;;;;;;;10246136;28;20076;-69
2022/02/10 19:30:11;;;;;;;21.98;13.52;;;;;;;;;;10249673;28;20575;-70
2022/02/10 19:35:11;;;;;;;17.85;11.95;;;;;;;;;;10247242;28;20064;-70
2022/02/10 19:40:11;;;;;;;30.67;15.77;;;;;;;;;;10251125;28;20467;-69
2022/02/10 19:45:09;;;;;;;29.02;16.20;;;;;;;;;;10244788;28;20076;-69
2022/02/10 19:50:12;;;;;;;39.53;23.10;;;;;;;;;;10241783;28;20088;-69
2022/02/10 19:55:17;;;;;;;21.38;12.93;;;;;;;;;;10246077;28;20073;-69
2022/02/10 20:00:20;;;;;;;23.13;15.95;;;;;;;;;;10247048;28;20053;-69
2022/02/10 20:05:24;;;;;;;17.05;9.93;;;;;;;;;;10243864;28;20073;-69
2022/02/10 20:10:24;;;;;;;25.08;14.95;;;;;;;;;;10244610;28;20088;-70
2022/02/10 20:15:23;;;;;;;15.63;12.13;;;;;;;;;;10244647;28;20070;-68
2022/02/10 20:20:21;;;;;;;14.80;10.35;;;;;;;;;;10247028;28;20069;-68
2022/02/10 20:25:19;;;;;;;12.40;8.70;;;;;;;;;;10261751;28;20111;-69
2022/02/10 20:30:19;;;;;;;19.48;11.93;;;;;;;;;;10244999;28;20107;-68
2022/02/10 20:35:19;;;;;;;6.45;5.35;;;;;;;;;;10246809;28;20071;-68
2022/02/10 20:40:17;;;;;;;14.68;10.32;;;;;;;;;;10248320;28;20081;-68
2022/02/10 20:45:15;;;;;;;24.90;15.60;;;;;;;;;;10245911;28;20073;-68
2022/02/10 20:50:15;;;;;;;9.32;6.72;;;;;;;;;;10252302;28;20103;-69
2022/02/10 20:55:13;;;;;;;10.60;7.93;;;;;;;;;;10259555;28;20080;-68
2022/02/10 21:00:13;;;;;;;9.77;6.95;;;;;;;;;;10257851;28;20108;-68
2022/02/10 21:05:25;;;;;;;14.43;7.88;;;;;;;;;;10263998;28;20076;-69
2022/02/10 21:10:27;;;;;;;18.08;9.82;;;;;;;;;;10260449;28;20091;-69
2022/02/10 21:15:30;;;;;;;12.48;7.50;;;;;;;;;;10252732;28;20081;-69
2022/02/10 21:20:31;;;;;;;8.98;8.18;;;;;;;;;;10245841;28;20065;-69
2022/02/10 21:25:38;;;;;;;11.75;8.88;;;;;;;;;;10246755;28;20052;-69
2022/02/10 21:30:40;;;;;;;8.90;5.47;;;;;;;;;;10246219;28;20080;-68
2022/02/10 21:36:00;;;;;;;5.53;5.03;;;;;;;;;;10246284;28;20049;-68
2022/02/10 22:19:01;;;;;;;6.22;5.55;;;;;;;;;;10245315;28;20084;-70
2022/02/10 22:24:02;;;;;;;7.63;5.32;;;;;;;;;;10248119;28;20065;-68
2022/02/10 22:29:06;;;;;;;8.43;6.75;;;;;;;;;;10241649;28;20073;-68
2022/02/10 22:34:17;;;;;;;5.93;5.38;;;;;;;;;;10245327;28;20553;-68
2022/02/10 22:39:15;;;;;;;5.53;4.93;;;;;;;;;;10245167;28;20079;-69
2022/02/10 22:44:15;;;;;;;6.03;5.43;;;;;;;;;;10240475;28;20065;-68
2022/02/10 22:49:14;;;;;;;5.85;5.28;;;;;;;;;;10243810;28;20060;-69
2022/02/10 22:54:13;;;;;;;5.88;5.28;;;;;;;;;;10242519;28;20478;-68
2022/02/10 22:59:13;;;;;;;19.52;12.63;;;;;;;;;;10245723;28;20092;-68
2022/02/10 23:04:12;;;;;;;6.85;6.03;;;;;;;;;;10246627;28;20041;-68
2022/02/10 23:09:27;;;;;;;5.95;4.57;;;;;;;;;;10242437;28;20087;-68
2022/02/10 23:14:26;;;;;;;6.63;5.83;;;;;;;;;;10244265;28;20077;-68
2022/02/10 23:19:26;;;;;;;5.50;5.00;;;;;;;;;;10241100;28;20080;-68
2022/02/10 23:24:24;;;;;;;5.90;5.03;;;;;;;;;;10245961;28;20115;-68
2022/02/10 23:29:23;;;;;;;48.25;25.67;;;;;;;;;;10246152;28;20079;-69
2022/02/10 23:34:21;;;;;;;6.70;6.07;;;;;;;;;;10243131;28;20056;-68
2022/02/10 23:39:25;;;;;;;29.92;21.95;;;;;;;;;;10245684;28;20064;-69
2022/02/10 23:44:27;;;;;;;7.57;6.83;;;;;;;;;;10244580;28;20084;-69
2022/02/10 23:49:27;;;;;;;6.60;5.65;;;;;;;;;;10247003;28;20351;-69
2022/02/10 23:54:27;;;;;;;5.82;4.97;;;;;;;;;;10246673;28;20065;-68
